KRST/RST METAR and TAF weather

Enter ICAO airport designator
Station Type Date Time Source
KRST METAR 2021/09/28 16:54 UTC NOAA

KRST 281654Z 16008KT 130V190 10SM CLR 22/11 A3000 RMK AO2 SLP155 T02170111


Station Type Date Time Source
KRST Decoded METAR 2021/09/28 16:54 UTC NOAA

ROCHESTER INTERNATIONAL AIRPORT , MN, United States (KRST) 43-54N 092-30W 403M
Sep 28, 2021 - 12:54 PM EDT / 2021.09.28 1654 UTC
Wind: from the SSE (160 degrees) at 9 MPH (8 KT) (direction variable):0
Visibility: 10 mile(s):0
Sky conditions: clear
Temperature: 71.1 F (21.7 C)
Dew Point: 52.0 F (11.1 C)
Relative Humidity: 50%
Pressure (altimeter): 30 in. Hg (1015 hPa)
ob: KRST 281654Z 16008KT 130V190 10SM CLR 22/11 A3000 RMK AO2 SLP155 T02170111
cycle: 17

Station Type Date Time Source
KRST TAF 2021/09/28 12:22 UTC NOAA

TAF KRST 281120Z 2812/2912 15009KT P6SM SKC

Example: see airport list